Time;durP1;ratioP1;P1;durP2;ratioP2;P2;SDS_P1;SDS_P2;PMS_P1;PMS_P2;Temp;Humidity;BMP_temperature;BMP_pressure;BME280_temperature;BME280_humidity;BME280_pressure;Samples;Min_cycle;Max_cycle;Signal;HPM_P1;HPM_P2
2021/12/21 00:00:39;;;;;;;;;;;0.80;94.50;;;;;;5059866;28;19928;-77
2021/12/21 00:03:05;;;;;;;;;;;0.80;94.50;;;;;;5053192;28;20067;-77
2021/12/21 00:05:32;;;;;;;;;;;0.70;94.50;;;;;;5054023;28;19932;-76
2021/12/21 00:07:59;;;;;;;;;;;0.70;94.50;;;;;;5060844;28;19928;-76
2021/12/21 00:10:28;;;;;;;;;;;0.70;94.50;;;;;;5059321;28;19928;-77
2021/12/21 00:13:05;;;;;;;;;;;0.70;94.50;;;;;;5051109;28;19933;-78
2021/12/21 00:15:41;;;;;;;;;;;0.70;94.50;;;;;;5054403;28;19995;-76
2021/12/21 00:18:18;;;;;;;;;;;0.70;94.50;;;;;;5052998;28;20390;-77
2021/12/21 00:20:52;;;;;;;;;;;0.70;94.50;;;;;;5051841;28;20451;-76
2021/12/21 00:23:31;;;;;;;;;;;0.60;94.40;;;;;;5053527;28;19929;-77
2021/12/21 00:26:00;;;;;;;;;;;0.60;94.50;;;;;;5058949;28;19940;-77
2021/12/21 00:28:30;;;;;;;;;;;0.60;94.50;;;;;;5054711;28;19932;-78
2021/12/21 00:30:57;;;;;;;;;;;0.60;94.50;;;;;;5055690;28;19928;-77
2021/12/21 00:33:23;;;;;;;;;;;0.60;94.50;;;;;;5050111;28;19979;-77
2021/12/21 00:35:50;;;;;;;;;;;0.60;94.50;;;;;;5050223;28;19933;-77
2021/12/21 00:38:16;;;;;;;;;;;0.50;94.40;;;;;;5057639;28;19929;-77
2021/12/21 00:40:43;;;;;;;;;;;0.50;94.40;;;;;;5058563;28;19928;-75
2021/12/21 00:43:11;;;;;;;;;;;0.50;94.40;;;;;;5059163;28;19929;-77
2021/12/21 00:45:37;;;;;;;;;;;0.50;94.40;;;;;;5048708;28;20435;-77
2021/12/21 00:48:04;;;;;;;;;;;0.50;94.50;;;;;;5051086;28;19928;-76
2021/12/21 00:50:31;;;;;;;;;;;0.50;94.50;;;;;;5054870;28;19929;-77
2021/12/21 00:52:57;;;;;;;;;;;0.50;94.50;;;;;;5059153;28;20792;-77
2021/12/21 00:55:24;;;;;;;;;;;0.50;94.50;;;;;;5055004;28;19936;-76
2021/12/21 00:57:51;;;;;;;;;;;0.50;94.50;;;;;;5049996;28;19933;-76
2021/12/21 01:00:21;;;;;;;;;;;0.50;94.50;;;;;;5052599;28;19932;-77
2021/12/21 01:02:48;;;;;;;;;;;0.40;94.40;;;;;;5048041;28;20023;-77
2021/12/21 01:05:21;;;;;;;;;;;0.40;94.40;;;;;;5057034;28;20391;-76
2021/12/21 01:07:51;;;;;;;;;;;0.40;94.40;;;;;;5053847;28;21520;-76
2021/12/21 01:13:14;;;;;;;;;;;0.40;94.50;;;;;;5051888;28;19944;-77
2021/12/21 01:15:59;;;;;;;;;;;0.30;94.40;;;;;;5049609;28;19929;-76
2021/12/21 01:18:33;;;;;;;;;;;0.40;94.50;;;;;;5050522;28;19934;-77
2021/12/21 01:21:06;;;;;;;;;;;0.30;94.40;;;;;;5054731;28;19941;-76
2021/12/21 01:26:24;;;;;;;;;;;0.30;94.40;;;;;;5049940;28;19931;-76
2021/12/21 01:28:57;;;;;;;;;;;0.30;94.50;;;;;;5052063;28;20550;-76
2021/12/21 01:31:32;;;;;;;;;;;0.30;94.40;;;;;;5049431;28;20391;-78
2021/12/21 01:34:16;;;;;;;;;;;0.30;94.50;;;;;;5050195;28;19928;-76
2021/12/21 01:36:49;;;;;;;;;;;0.30;94.50;;;;;;5055345;28;20760;-77
2021/12/21 01:39:41;;;;;;;;;;;0.20;94.40;;;;;;5048741;28;19932;-76
2021/12/21 01:42:09;;;;;;;;;;;0.20;94.40;;;;;;5054920;28;20362;-77
2021/12/21 01:49:32;;;;;;;;;;;0.20;94.40;;;;;;5051309;28;19940;-77
2021/12/21 01:50:10;;;;;;;;;;;0.20;94.50;;;;;;5056472;28;19935;-77
2021/12/21 01:52:36;;;;;;;;;;;0.20;94.50;;;;;;5056775;28;19928;-77
2021/12/21 01:55:04;;;;;;;;;;;0.10;94.40;;;;;;5050752;28;19928;-77
2021/12/21 01:57:30;;;;;;;;;;;0.10;94.40;;;;;;5055015;28;20282;-77
2021/12/21 01:59:57;;;;;;;;;;;0.10;94.40;;;;;;5055025;28;20418;-77
2021/12/21 02:02:23;;;;;;;;;;;0.20;94.40;;;;;;5051518;28;20381;-77
2021/12/21 02:04:52;;;;;;;;;;;0.10;94.40;;;;;;5056789;28;19935;-77
2021/12/21 02:07:19;;;;;;;;;;;0.10;94.40;;;;;;5058390;28;19976;-77
2021/12/21 02:09:46;;;;;;;;;;;0.10;94.40;;;;;;5054923;28;19937;-76
2021/12/21 02:12:14;;;;;;;;;;;0.10;94.40;;;;;;5054401;28;19929;-76
2021/12/21 02:14:41;;;;;;;;;;;0.10;94.40;;;;;;5060585;28;20049;-76
2021/12/21 02:17:28;;;;;;;;;;;0.10;94.40;;;;;;5050725;28;19929;-77
2021/12/21 02:20:07;;;;;;;;;;;0.10;94.40;;;;;;5058451;28;20308;-78
2021/12/21 02:22:39;;;;;;;;;;;0.00;94.40;;;;;;5057495;28;19970;-77
2021/12/21 02:25:30;;;;;;;;;;;0.00;94.40;;;;;;5057552;28;20387;-76
2021/12/21 02:27:57;;;;;;;;;;;0.00;94.40;;;;;;5056951;28;20347;-77
2021/12/21 02:30:24;;;;;;;;;;;0.00;94.40;;;;;;5056467;28;19939;-78
2021/12/21 02:32:51;;;;;;;;;;;0.00;94.40;;;;;;5054578;28;20481;-76
2021/12/21 02:35:19;;;;;;;;;;;0.00;94.40;;;;;;5054005;28;20346;-76
2021/12/21 02:37:46;;;;;;;;;;;-0.10;94.40;;;;;;5056295;28;19941;-77
2021/12/21 02:40:13;;;;;;;;;;;-0.10;94.40;;;;;;5053669;28;19932;-77
2021/12/21 02:42:39;;;;;;;;;;;-0.10;94.40;;;;;;5056534;28;19929;-78
2021/12/21 02:45:06;;;;;;;;;;;-0.10;94.40;;;;;;5053078;28;19936;-78
2021/12/21 02:47:33;;;;;;;;;;;-0.10;94.40;;;;;;5059400;28;19928;-76
2021/12/21 02:50:00;;;;;;;;;;;-0.10;94.40;;;;;;5053322;28;19928;-77
2021/12/21 02:52:28;;;;;;;;;;;-0.10;94.40;;;;;;5049091;28;19932;-78
2021/12/21 02:54:54;;;;;;;;;;;-0.10;94.40;;;;;;5054398;28;19951;-77
2021/12/21 02:57:21;;;;;;;;;;;-0.20;94.30;;;;;;5051102;28;19936;-77
2021/12/21 02:59:47;;;;;;;;;;;-0.10;94.40;;;;;;5050952;28;19932;-76
2021/12/21 03:02:14;;;;;;;;;;;-0.10;94.40;;;;;;5054801;28;19936;-77
2021/12/21 03:04:42;;;;;;;;;;;-0.20;94.40;;;;;;5052388;28;19933;-77
2021/12/21 03:07:39;;;;;;;;;;;-0.20;94.40;;;;;;5060088;28;19928;-76
2021/12/21 03:10:11;;;;;;;;;;;-0.20;94.40;;;;;;5053078;28;20373;-77
2021/12/21 03:15:19;;;;;;;;;;;-0.20;94.40;;;;;;5057387;28;19924;-76
2021/12/21 03:17:45;;;;;;;;;;;-0.20;94.40;;;;;;5057306;28;19928;-76
2021/12/21 03:20:12;;;;;;;;;;;-0.20;94.50;;;;;;5057367;28;19933;-77
2021/12/21 03:22:39;;;;;;;;;;;-0.20;94.30;;;;;;5058611;28;20416;-77
2021/12/21 03:25:08;;;;;;;;;;;-0.30;94.30;;;;;;5054747;28;20403;-76
2021/12/21 03:27:34;;;;;;;;;;;-0.30;94.40;;;;;;5057181;28;19931;-78
2021/12/21 03:30:01;;;;;;;;;;;-0.30;94.30;;;;;;5057770;28;20359;-76
2021/12/21 03:32:27;;;;;;;;;;;-0.30;94.30;;;;;;5048489;28;20063;-76
2021/12/21 03:34:54;;;;;;;;;;;-0.30;94.30;;;;;;5052429;28;19936;-77
2021/12/21 03:37:20;;;;;;;;;;;-0.30;94.30;;;;;;5053768;28;19924;-77
2021/12/21 03:39:47;;;;;;;;;;;-0.30;94.30;;;;;;5052037;28;19985;-77
2021/12/21 03:42:15;;;;;;;;;;;-0.30;94.30;;;;;;5058103;28;19929;-77
2021/12/21 03:44:42;;;;;;;;;;;-0.40;94.30;;;;;;5055147;28;20027;-77
2021/12/21 03:47:10;;;;;;;;;;;-0.40;94.30;;;;;;5054422;28;20285;-77
2021/12/21 03:49:53;;;;;;;;;;;-0.40;94.30;;;;;;5052741;28;19932;-77
2021/12/21 03:52:21;;;;;;;;;;;-0.40;94.30;;;;;;5058098;28;19950;-76
2021/12/21 03:54:49;;;;;;;;;;;-0.40;94.30;;;;;;5050456;28;19940;-76
2021/12/21 03:57:17;;;;;;;;;;;-0.40;94.30;;;;;;5050854;28;19932;-77
2021/12/21 03:59:44;;;;;;;;;;;-0.40;94.30;;;;;;5052016;28;19935;-77
2021/12/21 04:02:12;;;;;;;;;;;-0.40;94.30;;;;;;5048704;28;19951;-75
2021/12/21 04:04:38;;;;;;;;;;;-0.50;94.30;;;;;;5044858;28;19976;-78
2021/12/21 04:07:05;;;;;;;;;;;-0.50;94.30;;;;;;5055709;28;19941;-77
2021/12/21 04:09:32;;;;;;;;;;;-0.50;94.30;;;;;;5056006;28;19983;-77
2021/12/21 04:12:00;;;;;;;;;;;-0.50;94.30;;;;;;5059784;28;19933;-77
2021/12/21 04:14:28;;;;;;;;;;;-0.50;94.20;;;;;;5054981;28;19936;-77
2021/12/21 04:16:55;;;;;;;;;;;-0.50;94.20;;;;;;5049930;28;19928;-77
2021/12/21 04:19:22;;;;;;;;;;;-0.50;94.20;;;;;;5054321;28;19928;-77
2021/12/21 04:21:48;;;;;;;;;;;-0.50;94.20;;;;;;5057426;28;19935;-77
2021/12/21 04:24:15;;;;;;;;;;;-0.60;94.20;;;;;;5053254;28;19929;-77
2021/12/21 04:26:41;;;;;;;;;;;-0.60;94.20;;;;;;5050538;28;20121;-78
2021/12/21 04:29:08;;;;;;;;;;;-0.60;94.10;;;;;;5052740;28;19956;-78
2021/12/21 04:31:36;;;;;;;;;;;-0.60;94.10;;;;;;5049468;28;20449;-76
2021/12/21 04:34:02;;;;;;;;;;;-0.60;94.10;;;;;;5055226;28;20573;-78
2021/12/21 04:36:30;;;;;;;;;;;-0.60;94.10;;;;;;5053069;28;19932;-76
2021/12/21 04:39:00;;;;;;;;;;;-0.60;94.10;;;;;;5059753;28;20420;-76
2021/12/21 04:41:28;;;;;;;;;;;-0.60;94.10;;;;;;5048711;28;19932;-77
2021/12/21 04:43:55;;;;;;;;;;;-0.60;94.10;;;;;;5051581;28;19925;-77
2021/12/21 04:46:22;;;;;;;;;;;-0.60;94.10;;;;;;5052473;28;19935;-78
2021/12/21 04:48:50;;;;;;;;;;;-0.60;94.20;;;;;;5057411;28;20623;-77
2021/12/21 04:51:17;;;;;;;;;;;-0.70;94.10;;;;;;5055633;28;19937;-77
2021/12/21 04:53:43;;;;;;;;;;;-0.70;94.10;;;;;;5059949;28;20434;-77
2021/12/21 04:56:10;;;;;;;;;;;-0.70;94.10;;;;;;5054802;28;20736;-77
2021/12/21 04:58:37;;;;;;;;;;;-0.70;94.10;;;;;;5051438;28;20199;-76
2021/12/21 05:01:04;;;;;;;;;;;-0.70;94.10;;;;;;5050983;28;19991;-76
2021/12/21 05:03:31;;;;;;;;;;;-0.70;94.10;;;;;;5054516;28;19935;-76
2021/12/21 05:06:00;;;;;;;;;;;-0.70;94.10;;;;;;5055780;28;19928;-77
2021/12/21 05:08:31;;;;;;;;;;;-0.70;94.10;;;;;;5055120;28;20134;-77
2021/12/21 05:11:01;;;;;;;;;;;-0.80;94.10;;;;;;5053229;28;19936;-76
2021/12/21 05:13:29;;;;;;;;;;;-0.70;94.50;;;;;;5049284;28;20134;-76
2021/12/21 05:15:56;;;;;;;;;;;-0.80;94.10;;;;;;5054746;28;19930;-77
2021/12/21 05:18:23;;;;;;;;;;;-0.80;94.10;;;;;;5056388;28;19929;-76
2021/12/21 05:20:50;;;;;;;;;;;-0.80;94.10;;;;;;5055479;28;19943;-77
2021/12/21 05:23:18;;;;;;;;;;;-0.80;94.10;;;;;;5053419;28;20432;-76
2021/12/21 05:25:44;;;;;;;;;;;-0.80;94.10;;;;;;5052691;28;19931;-76
2021/12/21 05:28:12;;;;;;;;;;;-0.80;94.10;;;;;;5049395;28;19990;-76
2021/12/21 05:30:39;;;;;;;;;;;-0.80;94.10;;;;;;5051670;28;19935;-76
2021/12/21 05:33:05;;;;;;;;;;;-0.90;94.10;;;;;;5047485;28;20634;-78
2021/12/21 05:35:33;;;;;;;;;;;-0.90;94.10;;;;;;5054059;28;20651;-77
2021/12/21 05:38:03;;;;;;;;;;;-0.80;94.10;;;;;;5058280;28;19924;-76
2021/12/21 05:40:34;;;;;;;;;;;-0.90;94.10;;;;;;5053438;28;20315;-77
2021/12/21 05:43:01;;;;;;;;;;;-0.90;94.10;;;;;;5057213;28;19986;-77
2021/12/21 05:45:27;;;;;;;;;;;-0.90;94.10;;;;;;5058407;28;19958;-77
2021/12/21 05:47:54;;;;;;;;;;;-0.90;94.10;;;;;;5055260;28;19987;-77
2021/12/21 05:50:21;;;;;;;;;;;-0.90;94.10;;;;;;5054300;28;19940;-76
2021/12/21 05:52:47;;;;;;;;;;;-0.90;94.10;;;;;;5062319;28;19932;-76
2021/12/21 05:55:15;;;;;;;;;;;-0.90;94.10;;;;;;5056982;28;19974;-77
2021/12/21 05:57:43;;;;;;;;;;;-0.90;94.10;;;;;;5053883;28;19929;-76
2021/12/21 06:00:11;;;;;;;;;;;-0.90;94.10;;;;;;5057543;28;19936;-77
2021/12/21 06:02:37;;;;;;;;;;;-1.00;94.10;;;;;;5049410;28;20591;-77
2021/12/21 06:05:05;;;;;;;;;;;-1.00;94.00;;;;;;5050433;28;19978;-76
2021/12/21 06:07:32;;;;;;;;;;;-1.00;94.10;;;;;;5062538;28;20360;-76
2021/12/21 06:09:58;;;;;;;;;;;-0.90;94.10;;;;;;5052833;28;19933;-77
2021/12/21 06:12:40;;;;;;;;;;;-1.00;94.00;;;;;;5051560;28;20023;-73
2021/12/21 06:15:20;;;;;;;;;;;-1.00;94.00;;;;;;5053487;28;19936;-73
2021/12/21 06:26:09;;;;;;;;;;;-1.80;93.20;;;;;;5045324;28;19932;-76
2021/12/21 06:28:36;;;;;;;;;;;-1.70;93.60;;;;;;5053644;28;20403;-75
2021/12/21 06:31:04;;;;;;;;;;;-1.70;93.60;;;;;;5058335;28;19928;-75
2021/12/21 06:33:31;;;;;;;;;;;-1.60;93.70;;;;;;5054948;28;19933;-76
2021/12/21 06:35:58;;;;;;;;;;;-1.50;93.80;;;;;;5057788;28;20440;-75
2021/12/21 06:38:24;;;;;;;;;;;-1.50;93.70;;;;;;5061098;28;19963;-75
2021/12/21 06:40:51;;;;;;;;;;;-1.40;93.80;;;;;;5058977;28;20107;-74
2021/12/21 06:43:18;;;;;;;;;;;-1.40;93.70;;;;;;5056330;28;19933;-76
2021/12/21 06:45:51;;;;;;;;;;;-1.40;93.80;;;;;;5052922;28;19940;-69
2021/12/21 06:51:16;;;;;;;;;;;-1.30;93.70;;;;;;5058403;28;19944;-69
2021/12/21 06:53:44;;;;;;;;;;;-1.30;93.60;;;;;;5050579;28;19928;-70
2021/12/21 06:56:11;;;;;;;;;;;-1.30;93.60;;;;;;5051904;28;19928;-70
2021/12/21 06:58:38;;;;;;;;;;;-1.30;93.60;;;;;;5053494;28;19933;-70
2021/12/21 07:01:06;;;;;;;;;;;-1.30;93.60;;;;;;5055197;28;20060;-70
2021/12/21 07:03:34;;;;;;;;;;;-1.30;93.60;;;;;;5051766;28;19936;-70
2021/12/21 07:06:01;;;;;;;;;;;-1.30;93.50;;;;;;5054043;28;20025;-69
2021/12/21 07:08:30;;;;;;;;;;;-1.30;93.60;;;;;;5052754;28;20436;-70
2021/12/21 07:11:10;;;;;;;;;;;-1.30;93.50;;;;;;5048106;28;20971;-71
2021/12/21 07:19:06;;;;;;;;;;;-1.30;93.60;;;;;;5052426;28;19946;-72
2021/12/21 07:21:33;;;;;;;;;;;-1.30;93.60;;;;;;5055420;28;19936;-72
2021/12/21 07:23:59;;;;;;;;;;;-1.30;93.60;;;;;;5053732;28;20347;-72
2021/12/21 07:26:26;;;;;;;;;;;-1.30;93.50;;;;;;5054155;28;19928;-72
2021/12/21 07:28:53;;;;;;;;;;;-1.30;93.50;;;;;;5058113;28;20051;-72
2021/12/21 07:31:20;;;;;;;;;;;-1.30;93.50;;;;;;5056778;28;19940;-72
2021/12/21 07:33:46;;;;;;;;;;;-1.30;93.50;;;;;;5060858;28;20610;-72
2021/12/21 07:36:14;;;;;;;;;;;-1.30;93.80;;;;;;5056904;28;20576;-72
2021/12/21 07:38:41;;;;;;;;;;;-1.30;93.50;;;;;;5056729;28;19929;-72
2021/12/21 07:41:07;;;;;;;;;;;-1.30;93.50;;;;;;5055757;28;19994;-72
2021/12/21 07:43:34;;;;;;;;;;;-1.40;93.50;;;;;;5050271;28;19928;-73
2021/12/21 07:46:01;;;;;;;;;;;-1.40;93.50;;;;;;5057903;28;19936;-72
2021/12/21 07:48:27;;;;;;;;;;;-1.40;93.50;;;;;;5052289;28;20681;-72
2021/12/21 07:50:55;;;;;;;;;;;-1.40;93.50;;;;;;5055303;28;19933;-72
2021/12/21 07:53:23;;;;;;;;;;;-1.40;93.50;;;;;;5056295;28;19929;-72
2021/12/21 07:55:50;;;;;;;;;;;-1.40;93.50;;;;;;5064229;28;19935;-72
2021/12/21 07:58:17;;;;;;;;;;;-1.40;93.40;;;;;;5060536;28;19933;-72
2021/12/21 08:00:43;;;;;;;;;;;-1.40;93.40;;;;;;5052956;28;19936;-72
2021/12/21 08:03:14;;;;;;;;;;;-1.40;93.40;;;;;;5054137;28;20837;-72
2021/12/21 08:05:41;;;;;;;;;;;-1.40;93.40;;;;;;5059795;28;19928;-72
2021/12/21 08:08:12;;;;;;;;;;;-1.40;93.40;;;;;;5058948;28;19933;-73
2021/12/21 08:10:46;;;;;;;;;;;-1.40;93.40;;;;;;5055021;28;19955;-72
2021/12/21 08:13:13;;;;;;;;;;;-1.40;93.40;;;;;;5058623;28;19928;-72
2021/12/21 08:15:40;;;;;;;;;;;-1.40;93.40;;;;;;5059584;28;19981;-72
2021/12/21 08:18:07;;;;;;;;;;;-1.40;93.40;;;;;;5059176;28;19929;-72
2021/12/21 08:20:33;;;;;;;;;;;-1.40;93.40;;;;;;5053319;28;19928;-72
2021/12/21 08:23:00;;;;;;;;;;;-1.50;93.30;;;;;;5058568;28;19932;-72
2021/12/21 08:25:28;;;;;;;;;;;-1.40;93.40;;;;;;5054517;28;19935;-72
2021/12/21 08:27:57;;;;;;;;;;;-1.40;93.40;;;;;;5061556;28;20923;-73
2021/12/21 08:30:23;;;;;;;;;;;-1.40;93.40;;;;;;5052886;28;19951;-72
2021/12/21 08:32:50;;;;;;;;;;;-1.40;93.70;;;;;;5051029;28;19928;-72
2021/12/21 08:35:17;;;;;;;;;;;-1.40;93.40;;;;;;5053462;28;20022;-72
2021/12/21 08:37:48;;;;;;;;;;;-1.40;93.40;;;;;;5054429;28;19936;-72
2021/12/21 08:40:15;;;;;;;;;;;-1.50;93.40;;;;;;5060128;28;19978;-72
2021/12/21 08:42:42;;;;;;;;;;;-1.50;93.40;;;;;;5057629;28;19932;-72
2021/12/21 08:45:10;;;;;;;;;;;-1.50;93.40;;;;;;5058837;28;19937;-72
2021/12/21 08:47:36;;;;;;;;;;;-1.50;93.40;;;;;;5055471;28;19935;-72
2021/12/21 08:50:04;;;;;;;;;;;-1.50;93.40;;;;;;5056525;28;20078;-72
2021/12/21 08:52:31;;;;;;;;;;;-1.50;93.40;;;;;;5052886;28;19932;-72
2021/12/21 08:54:58;;;;;;;;;;;-1.50;93.40;;;;;;5059261;28;20460;-72
2021/12/21 08:57:24;;;;;;;;;;;-1.50;93.40;;;;;;5059513;28;19959;-73
2021/12/21 08:59:51;;;;;;;;;;;-1.50;93.50;;;;;;5054220;28;19932;-72
2021/12/21 09:02:19;;;;;;;;;;;-1.50;93.50;;;;;;5055193;28;19932;-72
2021/12/21 09:04:45;;;;;;;;;;;-1.50;93.50;;;;;;5056061;28;19929;-72
2021/12/21 09:07:12;;;;;;;;;;;-1.50;93.50;;;;;;5055511;28;19933;-72
2021/12/21 09:09:38;;;;;;;;;;;-1.50;93.60;;;;;;5052559;28;20355;-72
2021/12/21 09:12:05;;;;;;;;;;;-1.50;93.50;;;;;;5056930;28;19928;-72
2021/12/21 09:14:32;;;;;;;;;;;-1.50;93.60;;;;;;5058693;28;20002;-72
2021/12/21 09:16:59;;;;;;;;;;;-1.50;93.60;;;;;;5055899;28;20353;-72
2021/12/21 09:19:27;;;;;;;;;;;-1.50;93.60;;;;;;5052139;28;20384;-72
2021/12/21 09:21:53;;;;;;;;;;;-1.50;93.60;;;;;;5057541;28;19976;-72
2021/12/21 09:24:20;;;;;;;;;;;-1.50;93.60;;;;;;5054390;28;20011;-72
2021/12/21 09:26:46;;;;;;;;;;;-1.50;93.70;;;;;;5052717;28;19929;-72
2021/12/21 09:29:13;;;;;;;;;;;-1.50;93.70;;;;;;5048912;28;20065;-72
2021/12/21 09:31:39;;;;;;;;;;;-1.50;93.70;;;;;;5055808;28;20405;-72
2021/12/21 09:34:06;;;;;;;;;;;-1.50;93.70;;;;;;5055335;28;19935;-73
2021/12/21 09:36:34;;;;;;;;;;;-1.50;93.70;;;;;;5049284;28;20324;-73
2021/12/21 09:39:01;;;;;;;;;;;-1.50;93.70;;;;;;5055310;28;19978;-72
2021/12/21 09:41:28;;;;;;;;;;;-1.50;93.80;;;;;;5055725;28;19925;-72
2021/12/21 09:43:54;;;;;;;;;;;-1.50;93.80;;;;;;5056399;28;19929;-73
2021/12/21 09:46:21;;;;;;;;;;;-1.50;93.80;;;;;;5055800;28;19940;-72
2021/12/21 09:48:47;;;;;;;;;;;-1.50;93.80;;;;;;5058586;28;19928;-73
2021/12/21 09:51:15;;;;;;;;;;;-1.50;93.80;;;;;;5057061;28;20009;-73
2021/12/21 09:53:43;;;;;;;;;;;-1.50;93.80;;;;;;5058764;28;20375;-71
2021/12/21 09:56:10;;;;;;;;;;;-1.40;93.80;;;;;;5056317;28;19929;-72
2021/12/21 09:58:36;;;;;;;;;;;-1.40;93.80;;;;;;5051379;28;19936;-73
2021/12/21 10:01:04;;;;;;;;;;;-1.40;93.80;;;;;;5051163;28;20007;-73
2021/12/21 10:03:31;;;;;;;;;;;-1.40;93.80;;;;;;5052620;28;19982;-73
2021/12/21 10:06:04;;;;;;;;;;;-1.40;93.80;;;;;;5055944;28;20418;-72
2021/12/21 10:08:32;;;;;;;;;;;-1.40;93.80;;;;;;5054571;28;19925;-72
2021/12/21 10:11:00;;;;;;;;;;;-1.40;93.80;;;;;;5055757;28;19928;-72
2021/12/21 10:13:27;;;;;;;;;;;-1.40;93.80;;;;;;5050635;28;19929;-72
2021/12/21 10:15:55;;;;;;;;;;;-1.40;93.80;;;;;;5051738;28;20023;-72
2021/12/21 10:18:23;;;;;;;;;;;-1.40;93.80;;;;;;5055058;28;19928;-72
2021/12/21 10:20:50;;;;;;;;;;;-1.30;93.90;;;;;;5053272;28;20030;-71
2021/12/21 10:23:17;;;;;;;;;;;-1.30;93.80;;;;;;5057576;28;19928;-72
2021/12/21 10:25:46;;;;;;;;;;;-1.30;93.90;;;;;;5054844;28;20415;-72
2021/12/21 10:28:24;;;;;;;;;;;-1.30;93.90;;;;;;5058296;28;19955;-71
2021/12/21 10:30:52;;;;;;;;;;;-1.30;93.90;;;;;;5054787;28;19979;-72
2021/12/21 10:33:19;;;;;;;;;;;-1.30;93.90;;;;;;5061494;28;19939;-72
2021/12/21 10:35:46;;;;;;;;;;;-1.30;93.90;;;;;;5052727;28;19936;-71
2021/12/21 10:38:12;;;;;;;;;;;-1.30;93.90;;;;;;5058690;28;19932;-72
2021/12/21 10:40:40;;;;;;;;;;;-1.20;93.90;;;;;;5050619;28;19929;-71
2021/12/21 10:43:09;;;;;;;;;;;-1.30;94.00;;;;;;5051310;28;20436;-73
2021/12/21 10:45:38;;;;;;;;;;;-1.20;94.00;;;;;;5046117;28;19935;-75
2021/12/21 10:48:06;;;;;;;;;;;-1.20;94.00;;;;;;5057422;28;19978;-74
2021/12/21 10:50:34;;;;;;;;;;;-1.20;94.00;;;;;;5059908;28;19932;-74
2021/12/21 10:53:01;;;;;;;;;;;-1.20;94.00;;;;;;5058580;28;19972;-75
2021/12/21 10:55:30;;;;;;;;;;;-1.20;94.00;;;;;;5060712;28;19989;-74
2021/12/21 10:58:04;;;;;;;;;;;-1.20;94.00;;;;;;5058934;28;19935;-75
2021/12/21 11:00:31;;;;;;;;;;;-1.20;94.00;;;;;;5057784;28;19928;-75
2021/12/21 11:02:58;;;;;;;;;;;-1.10;94.10;;;;;;5055843;28;19936;-75
2021/12/21 11:05:25;;;;;;;;;;;-1.10;94.10;;;;;;5060098;28;19929;-74
2021/12/21 11:07:55;;;;;;;;;;;-1.10;94.10;;;;;;5056809;28;20319;-75
2021/12/21 11:10:26;;;;;;;;;;;-1.10;94.10;;;;;;5062882;28;20391;-74
2021/12/21 11:12:54;;;;;;;;;;;-1.10;94.00;;;;;;5058637;28;20676;-75
2021/12/21 11:15:22;;;;;;;;;;;-1.10;94.00;;;;;;5060880;28;19932;-75
2021/12/21 11:17:49;;;;;;;;;;;-1.10;94.00;;;;;;5055710;28;19929;-75
2021/12/21 11:20:17;;;;;;;;;;;-1.00;94.00;;;;;;5055894;28;19929;-75
2021/12/21 11:22:45;;;;;;;;;;;-1.00;94.00;;;;;;5056098;28;19933;-74
2021/12/21 11:25:12;;;;;;;;;;;-1.00;94.00;;;;;;5056993;28;20556;-74
2021/12/21 11:27:40;;;;;;;;;;;-1.00;94.00;;;;;;5059325;28;19986;-73
2021/12/21 11:30:08;;;;;;;;;;;-1.00;94.00;;;;;;5054102;28;19982;-74
2021/12/21 11:32:39;;;;;;;;;;;-1.00;94.00;;;;;;5060699;28;19941;-73
2021/12/21 11:37:20;;;;;;;;;;;-0.90;94.00;;;;;;5057613;28;19944;-73
2021/12/21 11:37:59;;;;;;;;;;;-1.00;94.00;;;;;;5053202;28;19929;-73
2021/12/21 11:40:27;;;;;;;;;;;-0.90;94.00;;;;;;5057174;28;19935;-73
2021/12/21 11:43:00;;;;;;;;;;;-0.90;94.00;;;;;;5055108;28;20453;-73
2021/12/21 11:45:28;;;;;;;;;;;-0.90;94.00;;;;;;5055223;28;19933;-73
2021/12/21 11:47:57;;;;;;;;;;;-0.90;94.00;;;;;;5055844;28;19936;-73
2021/12/21 11:50:24;;;;;;;;;;;-0.90;94.00;;;;;;5054132;28;19974;-73
2021/12/21 11:52:51;;;;;;;;;;;-0.90;94.00;;;;;;5046068;28;19924;-72
2021/12/21 11:55:20;;;;;;;;;;;-0.80;94.00;;;;;;5046872;28;19945;-74
2021/12/21 11:57:48;;;;;;;;;;;-0.80;94.00;;;;;;5049682;28;20395;-73
2021/12/21 12:00:16;;;;;;;;;;;-0.80;94.10;;;;;;5049405;28;19929;-74
2021/12/21 12:02:43;;;;;;;;;;;-0.80;94.10;;;;;;5053538;28;19929;-73
2021/12/21 12:05:21;;;;;;;;;;;-0.80;94.00;;;;;;5060357;28;20603;-74
2021/12/21 12:07:58;;;;;;;;;;;-0.80;94.10;;;;;;5052688;28;20578;-74
2021/12/21 12:10:26;;;;;;;;;;;-0.80;94.10;;;;;;5048691;28;19936;-73
2021/12/21 12:12:53;;;;;;;;;;;-0.70;94.10;;;;;;5052651;28;19929;-72
2021/12/21 12:15:19;;;;;;;;;;;-0.70;94.10;;;;;;5057788;28;19981;-73
2021/12/21 12:17:46;;;;;;;;;;;-0.70;94.10;;;;;;5058566;28;20311;-73
2021/12/21 12:20:14;;;;;;;;;;;-0.70;94.10;;;;;;5052810;28;19932;-74
2021/12/21 12:22:41;;;;;;;;;;;-0.60;94.10;;;;;;5057025;28;19934;-73
2021/12/21 12:25:13;;;;;;;;;;;-0.50;94.10;;;;;;5060471;28;19928;-73
2021/12/21 12:27:44;;;;;;;;;;;-0.50;94.10;;;;;;5054774;28;19933;-74
2021/12/21 12:30:12;;;;;;;;;;;-0.50;94.00;;;;;;5059825;28;19943;-73
2021/12/21 12:32:40;;;;;;;;;;;-0.40;94.00;;;;;;5058498;28;20438;-73
2021/12/21 12:35:07;;;;;;;;;;;-0.40;94.00;;;;;;5057395;28;19928;-74
2021/12/21 12:37:47;;;;;;;;;;;-0.40;93.90;;;;;;5055067;28;19936;-74
2021/12/21 12:40:15;;;;;;;;;;;-0.40;93.90;;;;;;5053519;28;19979;-73
2021/12/21 12:42:41;;;;;;;;;;;-0.40;93.90;;;;;;5059434;28;20003;-73
2021/12/21 12:45:13;;;;;;;;;;;-0.30;93.80;;;;;;5052451;28;20389;-73
2021/12/21 12:47:43;;;;;;;;;;;-0.30;93.80;;;;;;5055957;28;19935;-73
2021/12/21 12:50:14;;;;;;;;;;;-0.30;93.80;;;;;;5055284;28;19951;-73
2021/12/21 12:52:49;;;;;;;;;;;-0.30;93.80;;;;;;5051831;28;20023;-74
2021/12/21 12:55:16;;;;;;;;;;;-0.20;93.80;;;;;;5052951;28;19935;-73
2021/12/21 12:57:50;;;;;;;;;;;-0.20;93.70;;;;;;5054081;28;19933;-75
2021/12/21 13:00:19;;;;;;;;;;;-0.20;93.70;;;;;;5053651;28;19928;-74
2021/12/21 13:02:53;;;;;;;;;;;-0.10;93.60;;;;;;5046556;28;19928;-74
2021/12/21 13:05:20;;;;;;;;;;;-0.10;93.50;;;;;;5053511;28;19929;-74
2021/12/21 13:07:46;;;;;;;;;;;0.00;93.50;;;;;;5050275;28;19935;-75
2021/12/21 13:10:13;;;;;;;;;;;0.10;93.40;;;;;;5051299;28;19929;-75
2021/12/21 13:12:41;;;;;;;;;;;0.10;93.30;;;;;;5045647;28;20290;-75
2021/12/21 13:15:09;;;;;;;;;;;0.10;93.20;;;;;;5060321;28;19963;-75
2021/12/21 13:17:41;;;;;;;;;;;0.10;93.10;;;;;;5052190;28;19929;-75
2021/12/21 13:20:08;;;;;;;;;;;0.20;93.00;;;;;;5056142;28;19935;-75
2021/12/21 13:22:34;;;;;;;;;;;0.20;93.00;;;;;;5052321;28;20334;-75
2021/12/21 13:25:03;;;;;;;;;;;0.20;93.00;;;;;;5048973;28;19978;-75
2021/12/21 13:27:30;;;;;;;;;;;0.30;93.00;;;;;;5049758;28;20822;-75
2021/12/21 13:29:59;;;;;;;;;;;0.20;93.00;;;;;;5061472;28;20657;-75
2021/12/21 13:32:30;;;;;;;;;;;0.20;93.00;;;;;;5048136;28;21067;-75
2021/12/21 13:34:58;;;;;;;;;;;0.30;93.00;;;;;;5050900;28;19929;-75
2021/12/21 13:37:27;;;;;;;;;;;0.30;93.00;;;;;;5050975;28;19943;-75
2021/12/21 13:39:57;;;;;;;;;;;0.30;93.00;;;;;;5057246;28;20019;-68
2021/12/21 13:42:25;;;;;;;;;;;0.40;92.90;;;;;;5058022;28;19932;-68
2021/12/21 13:44:53;;;;;;;;;;;0.50;92.80;;;;;;5059179;28;19933;-67
2021/12/21 13:47:21;;;;;;;;;;;0.50;92.70;;;;;;5055126;28;19951;-68
2021/12/21 13:49:56;;;;;;;;;;;0.60;92.60;;;;;;5055920;28;19996;-67
2021/12/21 13:52:25;;;;;;;;;;;0.70;92.50;;;;;;5053568;28;19928;-68
2021/12/21 13:54:51;;;;;;;;;;;0.80;92.40;;;;;;5052833;28;19932;-69
2021/12/21 13:57:18;;;;;;;;;;;0.80;92.30;;;;;;5053828;28;19936;-67
2021/12/21 13:59:48;;;;;;;;;;;0.90;92.20;;;;;;5055576;28;19928;-68
2021/12/21 14:02:22;;;;;;;;;;;1.00;92.10;;;;;;5048251;28;19928;-68
2021/12/21 14:04:59;;;;;;;;;;;1.10;91.90;;;;;;5057534;28;19932;-68
2021/12/21 14:07:27;;;;;;;;;;;1.10;91.80;;;;;;5059153;28;19928;-68
2021/12/21 14:10:01;;;;;;;;;;;1.20;91.70;;;;;;5051613;28;20289;-68
2021/12/21 14:12:27;;;;;;;;;;;1.20;91.70;;;;;;5060778;28;19928;-68
2021/12/21 14:14:54;;;;;;;;;;;1.20;91.60;;;;;;5052601;28;19936;-68
2021/12/21 14:17:20;;;;;;;;;;;1.30;91.90;;;;;;5056141;28;20307;-68
2021/12/21 14:19:54;;;;;;;;;;;1.30;91.50;;;;;;5059856;28;19928;-69
2021/12/21 14:22:21;;;;;;;;;;;1.30;91.50;;;;;;5058560;28;19928;-68
2021/12/21 14:24:50;;;;;;;;;;;1.30;91.50;;;;;;5058733;28;19943;-68
2021/12/21 14:27:17;;;;;;;;;;;1.20;91.40;;;;;;5055569;28;19928;-68
2021/12/21 14:29:43;;;;;;;;;;;1.20;91.50;;;;;;5055546;28;19959;-68
2021/12/21 14:32:17;;;;;;;;;;;1.20;91.50;;;;;;5054175;28;20008;-68
2021/12/21 14:34:44;;;;;;;;;;;1.20;91.50;;;;;;5057109;28;19928;-68
2021/12/21 14:37:12;;;;;;;;;;;1.10;91.60;;;;;;5053681;28;20014;-68
2021/12/21 14:39:40;;;;;;;;;;;1.10;91.70;;;;;;5057585;28;19928;-67
2021/12/21 14:42:09;;;;;;;;;;;1.00;91.70;;;;;;5056395;28;19932;-68
2021/12/21 14:44:42;;;;;;;;;;;1.00;91.80;;;;;;5051519;28;19928;-68
2021/12/21 14:47:09;;;;;;;;;;;1.00;91.90;;;;;;5052404;28;20008;-68
2021/12/21 14:49:40;;;;;;;;;;;0.90;92.00;;;;;;5055585;28;19977;-68
2021/12/21 14:52:09;;;;;;;;;;;0.90;92.10;;;;;;5057832;28;20631;-69
2021/12/21 14:54:47;;;;;;;;;;;0.90;92.20;;;;;;5056866;28;20315;-68
2021/12/21 14:57:15;;;;;;;;;;;0.90;92.20;;;;;;5049511;28;19928;-69